Time;durP1;ratioP1;P1;durP2;ratioP2;P2;SDS_P1;SDS_P2;PMS_P1;PMS_P2;Temp;Humidity;BMP_temperature;BMP_pressure;BME280_temperature;BME280_humidity;BME280_pressure;Samples;Min_cycle;Max_cycle;Signal;HPM_P1;HPM_P2
2021/05/26 00:00:57;;;;;;;1.83;1.50;;;;;;;;;;5087732;28;20622;-62
2021/05/26 00:03:23;;;;;;;1.53;1.27;;;;;;;;;;5088042;28;20172;-62
2021/05/26 00:05:49;;;;;;;2.40;1.63;;;;;;;;;;5089027;28;20550;-62
2021/05/26 00:08:24;;;;;;;1.63;1.40;;;;;;;;;;5068787;28;20184;-65
2021/05/26 00:10:50;;;;;;;2.80;1.37;;;;;;;;;;5090369;28;20159;-62
2021/05/26 00:13:16;;;;;;;2.10;1.60;;;;;;;;;;5093165;28;20290;-63
2021/05/26 00:15:42;;;;;;;1.90;1.50;;;;;;;;;;5075371;28;20720;-63
2021/05/26 00:18:08;;;;;;;1.67;1.57;;;;;;;;;;5091912;28;20207;-63
2021/05/26 00:20:34;;;;;;;1.87;1.37;;;;;;;;;;5092806;28;20286;-63
2021/05/26 00:23:00;;;;;;;1.50;1.40;;;;;;;;;;5073916;28;20622;-62
2021/05/26 00:25:26;;;;;;;1.30;1.20;;;;;;;;;;5093655;28;20176;-63
2021/05/26 00:27:58;;;;;;;1.70;1.50;;;;;;;;;;5092608;28;20183;-63
2021/05/26 00:30:24;;;;;;;2.40;1.43;;;;;;;;;;5092980;28;20164;-62
2021/05/26 00:32:50;;;;;;;1.90;1.30;;;;;;;;;;5091793;28;20596;-63
2021/05/26 00:35:16;;;;;;;1.97;1.20;;;;;;;;;;5092842;28;20180;-63
2021/05/26 00:37:42;;;;;;;1.43;1.20;;;;;;;;;;5089583;28;20220;-62
2021/05/26 00:40:08;;;;;;;1.40;1.30;;;;;;;;;;5092584;28;20204;-62
2021/05/26 00:42:34;;;;;;;1.27;1.17;;;;;;;;;;5095415;28;20198;-62
2021/05/26 00:45:00;;;;;;;2.03;1.43;;;;;;;;;;5092630;28;20172;-62
2021/05/26 00:47:36;;;;;;;1.50;1.40;;;;;;;;;;5073885;28;20168;-62
2021/05/26 00:50:03;;;;;;;1.53;1.20;;;;;;;;;;5093884;28;20183;-62
2021/05/26 00:52:29;;;;;;;1.20;1.10;;;;;;;;;;5090970;28;20187;-62
2021/05/26 00:54:55;;;;;;;3.43;1.50;;;;;;;;;;5091996;28;20699;-60
2021/05/26 00:57:21;;;;;;;1.77;1.30;;;;;;;;;;5090171;28;20576;-61
2021/05/26 00:59:47;;;;;;;1.63;1.30;;;;;;;;;;5088171;28;20196;-61
2021/05/26 01:02:13;;;;;;;1.87;1.50;;;;;;;;;;5091550;28;20182;-63
2021/05/26 01:04:39;;;;;;;1.43;1.20;;;;;;;;;;5092416;28;20187;-62
2021/05/26 01:07:05;;;;;;;2.17;1.20;;;;;;;;;;5091074;28;20636;-63
2021/05/26 01:09:31;;;;;;;1.80;1.20;;;;;;;;;;5092912;28;20191;-62
2021/05/26 01:11:57;;;;;;;1.60;1.40;;;;;;;;;;5090549;28;20184;-65
2021/05/26 01:14:23;;;;;;;1.47;1.13;;;;;;;;;;5074132;28;20199;-62
2021/05/26 01:16:49;;;;;;;1.63;1.40;;;;;;;;;;5091949;28;20271;-63
2021/05/26 01:19:16;;;;;;;1.30;1.20;;;;;;;;;;5091049;28;20199;-62
2021/05/26 01:21:42;;;;;;;1.70;1.43;;;;;;;;;;5091436;28;20186;-64
2021/05/26 01:24:08;;;;;;;1.67;1.50;;;;;;;;;;5072353;28;20280;-62
2021/05/26 01:26:35;;;;;;;1.57;1.43;;;;;;;;;;5090753;28;20172;-63
2021/05/26 01:29:01;;;;;;;3.10;1.20;;;;;;;;;;5080466;28;20188;-63
2021/05/26 01:31:27;;;;;;;3.27;1.40;;;;;;;;;;5090319;28;20225;-62
2021/05/26 01:33:53;;;;;;;2.00;1.30;;;;;;;;;;5090733;28;20609;-62
2021/05/26 01:36:19;;;;;;;2.17;1.70;;;;;;;;;;5091520;28;20180;-62
2021/05/26 01:38:45;;;;;;;1.93;1.53;;;;;;;;;;5089381;28;20227;-62
2021/05/26 01:41:11;;;;;;;2.73;1.43;;;;;;;;;;5091330;28;20172;-62
2021/05/26 01:43:37;;;;;;;4.23;1.70;;;;;;;;;;5083507;28;20172;-62
2021/05/26 01:46:04;;;;;;;2.63;1.40;;;;;;;;;;5091556;28;20191;-62
2021/05/26 01:48:30;;;;;;;2.77;1.60;;;;;;;;;;5090326;28;20501;-62
2021/05/26 01:50:56;;;;;;;2.20;1.40;;;;;;;;;;5091446;28;20184;-62
2021/05/26 01:53:22;;;;;;;4.20;1.97;;;;;;;;;;5088263;28;20218;-62
2021/05/26 01:55:48;;;;;;;2.40;1.63;;;;;;;;;;5090577;28;20188;-64
2021/05/26 01:58:15;;;;;;;3.30;1.80;;;;;;;;;;5089311;28;20274;-62
2021/05/26 02:00:41;;;;;;;3.03;1.63;;;;;;;;;;5091076;28;20200;-62
2021/05/26 02:03:08;;;;;;;3.37;1.50;;;;;;;;;;5090154;28;20182;-63
2021/05/26 02:05:34;;;;;;;2.07;1.90;;;;;;;;;;5090865;28;20188;-63
2021/05/26 02:08:01;;;;;;;2.03;1.70;;;;;;;;;;5088761;28;20528;-63
2021/05/26 02:13:11;;;;;;;2.63;1.40;;;;;;;;;;5086303;28;20286;-64
2021/05/26 02:15:37;;;;;;;2.80;1.63;;;;;;;;;;5090060;28;20613;-63
2021/05/26 02:18:04;;;;;;;1.80;1.70;;;;;;;;;;5089342;28;20196;-65
2021/05/26 02:20:30;;;;;;;3.37;1.60;;;;;;;;;;5090449;28;20196;-63
2021/05/26 02:22:56;;;;;;;2.33;1.40;;;;;;;;;;5088565;28;20535;-62
2021/05/26 02:25:22;;;;;;;4.07;1.87;;;;;;;;;;5071252;28;20258;-63
2021/05/26 02:27:48;;;;;;;3.10;1.90;;;;;;;;;;5090067;28;20234;-62
2021/05/26 02:30:14;;;;;;;2.63;1.90;;;;;;;;;;5072347;28;20643;-63
2021/05/26 02:32:40;;;;;;;2.80;1.50;;;;;;;;;;5089291;28;20183;-63
2021/05/26 02:35:07;;;;;;;4.20;1.87;;;;;;;;;;5090695;28;20233;-62
2021/05/26 02:37:33;;;;;;;2.10;1.83;;;;;;;;;;5070201;28;20180;-64
2021/05/26 02:39:59;;;;;;;2.70;2.03;;;;;;;;;;5090389;28;20218;-64
2021/05/26 02:42:25;;;;;;;5.03;1.67;;;;;;;;;;5071024;28;20176;-62
2021/05/26 02:44:51;;;;;;;4.07;1.87;;;;;;;;;;5091796;28;20254;-63
2021/05/26 02:47:17;;;;;;;3.90;2.07;;;;;;;;;;5095270;28;20258;-63
2021/05/26 02:49:43;;;;;;;2.83;1.73;;;;;;;;;;5073180;28;20176;-63
2021/05/26 02:52:09;;;;;;;2.50;2.07;;;;;;;;;;5078023;28;21046;-63
2021/05/26 02:54:35;;;;;;;6.13;2.00;;;;;;;;;;5090730;28;20184;-63
2021/05/26 02:57:01;;;;;;;4.50;2.20;;;;;;;;;;5090133;28;20190;-62
2021/05/26 02:59:27;;;;;;;4.17;2.17;;;;;;;;;;5072180;28;20216;-62
2021/05/26 03:01:53;;;;;;;2.60;1.63;;;;;;;;;;5090365;28;20654;-63
2021/05/26 03:04:19;;;;;;;3.10;1.40;;;;;;;;;;5089542;28;20183;-62
2021/05/26 03:06:45;;;;;;;4.13;2.63;;;;;;;;;;5070797;28;20184;-63
2021/05/26 03:09:11;;;;;;;3.37;1.77;;;;;;;;;;5088601;28;20514;-62
2021/05/26 03:11:37;;;;;;;4.30;2.00;;;;;;;;;;5071439;28;20175;-62
2021/05/26 03:14:03;;;;;;;4.77;1.73;;;;;;;;;;5088426;28;20207;-63
2021/05/26 03:16:29;;;;;;;4.33;2.40;;;;;;;;;;5090786;28;20195;-62
2021/05/26 03:18:55;;;;;;;4.17;1.87;;;;;;;;;;5090144;28;20248;-63
2021/05/26 03:21:21;;;;;;;5.23;2.07;;;;;;;;;;5073045;28;20209;-62
2021/05/26 03:23:47;;;;;;;2.37;1.80;;;;;;;;;;5070402;28;20535;-63
2021/05/26 03:26:14;;;;;;;4.90;2.37;;;;;;;;;;5090169;28;20177;-63
2021/05/26 03:28:40;;;;;;;3.40;2.20;;;;;;;;;;5090174;28;20180;-63
2021/05/26 03:31:06;;;;;;;2.27;1.63;;;;;;;;;;5084281;28;20180;-62
2021/05/26 03:33:32;;;;;;;3.60;2.17;;;;;;;;;;5071275;28;21085;-62
2021/05/26 03:35:58;;;;;;;3.13;2.20;;;;;;;;;;5090785;28;20630;-65
2021/05/26 03:38:24;;;;;;;4.13;2.23;;;;;;;;;;5070619;28;20686;-63
2021/05/26 03:40:50;;;;;;;3.60;2.20;;;;;;;;;;5089907;28;20191;-64
2021/05/26 03:43:16;;;;;;;3.70;2.03;;;;;;;;;;5089772;28;20854;-64
2021/05/26 03:45:42;;;;;;;2.90;1.97;;;;;;;;;;5072095;28;20184;-63
2021/05/26 03:48:09;;;;;;;5.73;2.40;;;;;;;;;;5090967;28;20180;-63
2021/05/26 03:50:35;;;;;;;5.03;2.40;;;;;;;;;;5073905;28;20183;-62
2021/05/26 03:53:01;;;;;;;4.63;2.20;;;;;;;;;;5087124;28;20626;-63
2021/05/26 03:55:28;;;;;;;3.00;2.07;;;;;;;;;;5089824;28;20657;-63
2021/05/26 03:57:54;;;;;;;4.03;2.00;;;;;;;;;;5088856;28;20549;-63
2021/05/26 04:00:21;;;;;;;3.43;2.43;;;;;;;;;;5090110;28;20196;-64
2021/05/26 04:02:48;;;;;;;4.40;2.17;;;;;;;;;;5089428;28;20175;-62
2021/05/26 04:05:15;;;;;;;3.37;1.80;;;;;;;;;;5071195;28;20176;-62
2021/05/26 04:07:41;;;;;;;2.83;1.90;;;;;;;;;;5086924;28;20589;-64
2021/05/26 04:10:07;;;;;;;4.90;2.33;;;;;;;;;;5087747;28;20184;-62
2021/05/26 04:12:33;;;;;;;3.43;1.90;;;;;;;;;;5069933;28;20211;-62
2021/05/26 04:14:59;;;;;;;5.90;2.00;;;;;;;;;;5069885;28;20211;-62
2021/05/26 04:17:25;;;;;;;3.33;1.90;;;;;;;;;;5088009;28;20693;-63
2021/05/26 04:19:52;;;;;;;4.47;2.53;;;;;;;;;;5086224;28;20344;-62
2021/05/26 04:22:18;;;;;;;3.73;2.10;;;;;;;;;;5067355;28;20187;-62
2021/05/26 04:24:44;;;;;;;3.80;2.50;;;;;;;;;;5089429;28;20207;-62
2021/05/26 04:27:10;;;;;;;3.27;1.97;;;;;;;;;;5089002;28;20956;-62
2021/05/26 04:29:36;;;;;;;5.07;2.00;;;;;;;;;;5090326;28;20171;-62
2021/05/26 04:32:03;;;;;;;3.50;2.03;;;;;;;;;;5089170;28;20175;-63
2021/05/26 04:34:29;;;;;;;4.07;2.10;;;;;;;;;;5087453;28;20213;-62
2021/05/26 04:36:55;;;;;;;3.30;2.00;;;;;;;;;;5084855;28;20194;-62
2021/05/26 04:39:21;;;;;;;3.07;1.80;;;;;;;;;;5087605;28;20263;-64
2021/05/26 04:41:47;;;;;;;5.23;2.30;;;;;;;;;;5070058;28;20172;-62
2021/05/26 04:44:13;;;;;;;3.47;1.77;;;;;;;;;;5078736;28;20532;-62
2021/05/26 04:46:39;;;;;;;3.77;2.10;;;;;;;;;;5072647;28;20172;-62
2021/05/26 04:49:05;;;;;;;4.87;2.17;;;;;;;;;;5083585;28;20177;-62
2021/05/26 04:51:31;;;;;;;3.33;2.20;;;;;;;;;;5079638;28;20649;-64
2021/05/26 04:53:57;;;;;;;3.93;2.23;;;;;;;;;;5077351;28;20576;-63
2021/05/26 04:56:23;;;;;;;2.43;1.57;;;;;;;;;;5085331;28;20236;-62
2021/05/26 04:58:49;;;;;;;4.40;2.53;;;;;;;;;;5068985;28;20238;-62
2021/05/26 05:01:16;;;;;;;3.23;1.87;;;;;;;;;;5086333;28;20222;-62
2021/05/26 05:03:43;;;;;;;4.50;1.97;;;;;;;;;;5076973;28;20173;-62
2021/05/26 05:06:09;;;;;;;3.83;2.40;;;;;;;;;;5058518;28;20218;-62
2021/05/26 05:08:35;;;;;;;3.47;1.90;;;;;;;;;;5064754;28;20556;-62
2021/05/26 05:11:01;;;;;;;4.13;1.90;;;;;;;;;;5082371;28;20225;-62
2021/05/26 05:13:27;;;;;;;3.77;2.10;;;;;;;;;;5067922;28;20262;-65
2021/05/26 05:15:53;;;;;;;4.17;2.13;;;;;;;;;;5083466;28;20222;-62
2021/05/26 05:18:19;;;;;;;2.97;1.70;;;;;;;;;;5086987;28;20730;-62
2021/05/26 05:20:45;;;;;;;3.20;2.00;;;;;;;;;;5065698;28;20251;-62
2021/05/26 05:23:11;;;;;;;4.70;1.90;;;;;;;;;;5079913;28;20181;-62
2021/05/26 05:25:37;;;;;;;3.13;1.97;;;;;;;;;;5083350;28;20206;-63
2021/05/26 05:28:05;;;;;;;3.03;1.87;;;;;;;;;;5080649;28;20696;-62
2021/05/26 05:30:31;;;;;;;2.70;1.63;;;;;;;;;;5072295;28;20176;-62
2021/05/26 05:32:57;;;;;;;3.13;1.67;;;;;;;;;;5082716;28;20653;-64
2021/05/26 05:35:23;;;;;;;5.33;1.97;;;;;;;;;;5071928;28;20188;-62
2021/05/26 05:37:49;;;;;;;2.13;1.40;;;;;;;;;;5079300;28;20212;-62
2021/05/26 05:40:15;;;;;;;4.70;2.03;;;;;;;;;;5078571;28;20203;-60
2021/05/26 05:42:42;;;;;;;4.43;1.80;;;;;;;;;;5091718;28;20272;-61
2021/05/26 05:45:08;;;;;;;3.07;2.00;;;;;;;;;;5080777;28;20180;-60
2021/05/26 05:47:35;;;;;;;2.00;1.50;;;;;;;;;;5075747;28;20191;-63
2021/05/26 05:50:01;;;;;;;1.90;1.63;;;;;;;;;;5090969;28;20531;-63
2021/05/26 05:52:27;;;;;;;3.20;1.57;;;;;;;;;;5088867;28;20267;-64
2021/05/26 05:54:53;;;;;;;2.40;1.87;;;;;;;;;;5085965;28;20529;-65
2021/05/26 05:57:19;;;;;;;4.10;1.70;;;;;;;;;;5084627;28;20672;-63
2021/05/26 05:59:45;;;;;;;3.77;2.00;;;;;;;;;;5072182;28;20192;-65
2021/05/26 06:02:11;;;;;;;2.97;1.63;;;;;;;;;;5055005;28;20177;-65
2021/05/26 06:04:37;;;;;;;2.60;1.63;;;;;;;;;;5092732;28;20217;-67
2021/05/26 06:07:03;;;;;;;4.87;1.53;;;;;;;;;;5073054;28;20171;-65
2021/05/26 06:09:29;;;;;;;3.43;1.97;;;;;;;;;;5087912;28;20182;-64
2021/05/26 06:11:56;;;;;;;3.40;1.73;;;;;;;;;;5079179;28;20184;-64
2021/05/26 06:14:22;;;;;;;2.80;1.73;;;;;;;;;;5064249;28;20196;-64
2021/05/26 06:16:48;;;;;;;2.57;1.97;;;;;;;;;;5070088;28;20569;-66
2021/05/26 06:19:14;;;;;;;2.83;1.50;;;;;;;;;;5069605;28;20207;-64
2021/05/26 06:21:40;;;;;;;3.93;1.43;;;;;;;;;;5076784;28;20184;-64
2021/05/26 06:24:06;;;;;;;2.03;1.50;;;;;;;;;;5077093;28;20618;-64
2021/05/26 06:26:33;;;;;;;5.77;1.80;;;;;;;;;;5074092;28;20183;-64
2021/05/26 06:29:00;;;;;;;2.37;1.43;;;;;;;;;;5091599;28;20254;-65
2021/05/26 06:31:26;;;;;;;3.00;1.43;;;;;;;;;;5064916;28;20172;-64
2021/05/26 06:33:52;;;;;;;1.53;1.43;;;;;;;;;;5086843;28;20176;-63
2021/05/26 06:36:18;;;;;;;2.10;1.60;;;;;;;;;;5073089;28;20736;-66
2021/05/26 06:38:44;;;;;;;2.70;1.53;;;;;;;;;;5089572;28;20215;-64
2021/05/26 06:41:10;;;;;;;10.77;2.47;;;;;;;;;;5056396;28;20185;-64
2021/05/26 06:43:37;;;;;;;1.73;1.57;;;;;;;;;;5087996;28;20176;-64
2021/05/26 06:46:03;;;;;;;5.50;1.70;;;;;;;;;;5090917;28;20168;-64
2021/05/26 06:48:29;;;;;;;5.13;1.87;;;;;;;;;;5091117;28;20646;-64
2021/05/26 06:50:55;;;;;;;2.97;1.50;;;;;;;;;;5091179;28;20180;-65
2021/05/26 06:53:21;;;;;;;3.47;1.50;;;;;;;;;;5070919;28;20180;-64
2021/05/26 06:55:47;;;;;;;4.50;2.47;;;;;;;;;;5056788;28;20180;-64
2021/05/26 06:58:13;;;;;;;2.37;1.90;;;;;;;;;;5080662;28;20191;-65
2021/05/26 07:00:39;;;;;;;2.83;2.00;;;;;;;;;;5088456;28;20245;-64
2021/05/26 07:03:05;;;;;;;3.00;1.90;;;;;;;;;;5071380;28;20180;-64
2021/05/26 07:05:32;;;;;;;4.67;2.07;;;;;;;;;;5071867;28;20354;-64
2021/05/26 07:07:59;;;;;;;3.00;1.77;;;;;;;;;;5088572;28;20292;-65
2021/05/26 07:10:25;;;;;;;2.17;1.77;;;;;;;;;;5071977;28;20184;-66
2021/05/26 07:12:51;;;;;;;3.57;1.70;;;;;;;;;;5089950;28;20186;-64
2021/05/26 07:15:18;;;;;;;2.53;1.63;;;;;;;;;;5090032;28;20207;-64
2021/05/26 07:17:44;;;;;;;2.90;1.70;;;;;;;;;;5091148;28;20190;-64
2021/05/26 07:20:11;;;;;;;4.23;1.70;;;;;;;;;;5089142;28;20200;-65
2021/05/26 07:22:37;;;;;;;3.77;2.20;;;;;;;;;;5077857;28;20180;-64
2021/05/26 07:25:03;;;;;;;3.10;1.77;;;;;;;;;;5090862;28;20580;-65
2021/05/26 07:27:29;;;;;;;2.03;1.80;;;;;;;;;;5072769;28;20180;-64
2021/05/26 07:29:55;;;;;;;2.90;1.73;;;;;;;;;;5091216;28;20179;-65
2021/05/26 07:32:21;;;;;;;2.43;1.60;;;;;;;;;;5090738;28;20188;-64
2021/05/26 07:34:47;;;;;;;3.60;1.90;;;;;;;;;;5091052;28;20175;-65
2021/05/26 07:37:13;;;;;;;3.13;1.43;;;;;;;;;;5069430;28;20503;-64
2021/05/26 07:39:39;;;;;;;2.63;1.47;;;;;;;;;;5087587;28;20219;-65
2021/05/26 07:42:07;;;;;;;3.93;1.87;;;;;;;;;;5064045;28;20192;-66
2021/05/26 07:44:33;;;;;;;2.00;1.50;;;;;;;;;;5090771;28;20176;-66
2021/05/26 07:46:59;;;;;;;1.67;1.30;;;;;;;;;;5072503;28;20253;-68
2021/05/26 07:49:25;;;;;;;3.37;1.40;;;;;;;;;;5085266;28;20180;-65
2021/05/26 07:51:54;;;;;;;1.93;1.50;;;;;;;;;;5071166;28;20184;-65
2021/05/26 07:54:22;;;;;;;4.90;1.60;;;;;;;;;;5084829;28;20187;-65
2021/05/26 07:56:48;;;;;;;2.47;1.53;;;;;;;;;;5078758;28;20267;-64
2021/05/26 07:59:14;;;;;;;2.97;1.50;;;;;;;;;;5087585;28;20257;-65
2021/05/26 08:01:42;;;;;;;3.65;1.70;;;;;;;;;;5074118;28;20425;-65
2021/05/26 08:04:08;;;;;;;6.07;3.00;;;;;;;;;;5086748;28;20172;-65
2021/05/26 08:06:34;;;;;;;1.27;1.10;;;;;;;;;;5060878;28;20206;-65
2021/05/26 08:09:00;;;;;;;1.70;1.60;;;;;;;;;;5085985;28;20252;-67
2021/05/26 08:11:26;;;;;;;2.43;1.73;;;;;;;;;;5082522;28;20176;-65
2021/05/26 08:13:52;;;;;;;1.90;1.53;;;;;;;;;;5068961;28;20272;-64
2021/05/26 08:16:19;;;;;;;1.63;1.30;;;;;;;;;;5087901;28;20626;-64
2021/05/26 08:18:45;;;;;;;3.87;1.50;;;;;;;;;;5084661;28;20179;-66
2021/05/26 08:21:11;;;;;;;1.30;1.20;;;;;;;;;;5084086;28;20789;-65
2021/05/26 08:23:37;;;;;;;1.37;1.23;;;;;;;;;;5070614;28;20649;-65
2021/05/26 08:26:04;;;;;;;1.57;1.30;;;;;;;;;;5072375;28;20168;-65
2021/05/26 08:28:30;;;;;;;1.43;1.20;;;;;;;;;;5071911;28;20187;-65
2021/05/26 08:30:56;;;;;;;2.97;1.47;;;;;;;;;;5073275;28;20647;-65
2021/05/26 08:33:22;;;;;;;1.97;1.30;;;;;;;;;;5066110;28;20618;-67
2021/05/26 08:35:48;;;;;;;1.90;1.37;;;;;;;;;;5093810;28;20253;-66
2021/05/26 08:38:14;;;;;;;3.50;1.60;;;;;;;;;;5070184;28;20290;-66
2021/05/26 08:40:40;;;;;;;3.73;1.70;;;;;;;;;;5082687;28;20196;-66
2021/05/26 08:43:06;;;;;;;2.17;1.30;;;;;;;;;;5080788;28;20211;-68
2021/05/26 08:45:32;;;;;;;2.43;1.47;;;;;;;;;;5056970;28;20267;-65
2021/05/26 08:48:04;;;;;;;3.03;1.77;;;;;;;;;;5062378;28;20653;-65
2021/05/26 08:50:31;;;;;;;5.33;1.90;;;;;;;;;;5085083;28;20198;-66
2021/05/26 08:52:57;;;;;;;3.07;1.47;;;;;;;;;;5069044;28;20194;-65
2021/05/26 08:55:23;;;;;;;2.53;1.50;;;;;;;;;;5070687;28;20183;-64
2021/05/26 08:57:49;;;;;;;1.30;1.20;;;;;;;;;;5087565;28;20176;-62
2021/05/26 09:00:15;;;;;;;1.37;1.27;;;;;;;;;;5093837;28;20719;-63
2021/05/26 09:02:42;;;;;;;2.87;1.60;;;;;;;;;;5093412;28;20669;-63
2021/05/26 09:05:21;;;;;;;3.00;1.40;;;;;;;;;;5060523;28;20526;-62
2021/05/26 09:07:47;;;;;;;2.13;1.93;;;;;;;;;;5065883;28;20180;-65
2021/05/26 09:10:13;;;;;;;1.40;1.30;;;;;;;;;;5092052;28;20225;-65
2021/05/26 09:12:44;;;;;;;2.47;1.60;;;;;;;;;;5082749;28;20243;-65
2021/05/26 09:15:13;;;;;;;1.23;1.00;;;;;;;;;;5073284;28;20207;-65
2021/05/26 09:17:39;;;;;;;2.07;1.30;;;;;;;;;;5071899;28;20630;-64
2021/05/26 09:20:12;;;;;;;1.20;1.10;;;;;;;;;;5084651;28;20200;-65
2021/05/26 09:22:41;;;;;;;1.60;1.30;;;;;;;;;;5076588;28;20175;-65
2021/05/26 09:25:08;;;;;;;1.90;1.23;;;;;;;;;;5090053;28;20176;-64
2021/05/26 09:27:34;;;;;;;1.53;1.30;;;;;;;;;;5066434;28;20241;-64
2021/05/26 09:30:00;;;;;;;1.27;1.03;;;;;;;;;;5072157;28;20202;-65
2021/05/26 09:32:30;;;;;;;1.10;1.00;;;;;;;;;;5078099;28;20887;-66
2021/05/26 09:34:57;;;;;;;1.20;0.93;;;;;;;;;;5070369;28;20188;-64
2021/05/26 09:37:27;;;;;;;2.53;1.40;;;;;;;;;;5091342;28;20721;-65
2021/05/26 09:40:00;;;;;;;1.37;1.13;;;;;;;;;;5091458;28;20200;-64
2021/05/26 09:42:27;;;;;;;2.17;1.20;;;;;;;;;;5077291;28;20176;-64
2021/05/26 09:45:04;;;;;;;2.00;1.20;;;;;;;;;;5090109;28;20203;-64
2021/05/26 09:47:43;;;;;;;1.53;1.10;;;;;;;;;;5070306;28;20198;-65
2021/05/26 09:50:28;;;;;;;1.20;1.10;;;;;;;;;;5073558;28;20184;-65
2021/05/26 09:53:04;;;;;;;1.50;1.10;;;;;;;;;;5090849;28;20648;-64
2021/05/26 09:55:40;;;;;;;2.30;1.30;;;;;;;;;;5091730;28;20179;-64
2021/05/26 09:58:11;;;;;;;1.83;1.30;;;;;;;;;;5073408;28;20191;-64
2021/05/26 10:00:38;;;;;;;1.53;1.00;;;;;;;;;;5091925;28;20206;-65
2021/05/26 10:03:05;;;;;;;2.20;1.40;;;;;;;;;;5091420;28;20251;-66
2021/05/26 10:05:31;;;;;;;1.37;1.27;;;;;;;;;;5073162;28;20183;-66
2021/05/26 10:08:00;;;;;;;1.90;1.33;;;;;;;;;;5089245;28;20187;-67
2021/05/26 10:10:28;;;;;;;1.30;1.20;;;;;;;;;;5060651;28;20180;-65
2021/05/26 10:12:57;;;;;;;1.40;1.30;;;;;;;;;;5073069;28;20324;-67
2021/05/26 10:15:24;;;;;;;1.47;1.00;;;;;;;;;;5084847;28;20697;-66
2021/05/26 10:17:52;;;;;;;1.53;1.23;;;;;;;;;;5082507;28;20184;-67
2021/05/26 10:20:19;;;;;;;3.80;1.67;;;;;;;;;;5080902;28;20199;-67
2021/05/26 10:22:46;;;;;;;2.20;1.40;;;;;;;;;;5060070;28;20547;-67
2021/05/26 10:25:13;;;;;;;1.67;1.30;;;;;;;;;;5082133;28;20171;-67
2021/05/26 10:27:43;;;;;;;2.67;1.23;;;;;;;;;;5061012;28;20219;-67
2021/05/26 10:30:10;;;;;;;2.73;1.10;;;;;;;;;;5062485;28;20181;-67
2021/05/26 10:32:53;;;;;;;1.50;1.13;;;;;;;;;;5089188;28;20707;-66
2021/05/26 10:35:19;;;;;;;2.33;1.57;;;;;;;;;;5089410;28;20267;-67
2021/05/26 10:37:46;;;;;;;1.80;1.40;;;;;;;;;;5070947;28;20219;-67
2021/05/26 10:40:31;;;;;;;1.30;1.20;;;;;;;;;;5083592;28;20192;-68
2021/05/26 10:43:21;;;;;;;1.33;1.23;;;;;;;;;;5060874;28;20740;-67
2021/05/26 10:45:52;;;;;;;1.70;1.33;;;;;;;;;;5081544;28;20366;-67
2021/05/26 10:48:36;;;;;;;2.37;1.20;;;;;;;;;;5082839;28;20635;-68
2021/05/26 10:51:02;;;;;;;1.03;1.03;;;;;;;;;;5087449;28;20593;-67
2021/05/26 10:53:37;;;;;;;1.73;1.50;;;;;;;;;;5081605;28;20535;-68
2021/05/26 10:56:03;;;;;;;1.13;1.03;;;;;;;;;;5081034;28;20214;-69
2021/05/26 10:58:36;;;;;;;2.50;0.97;;;;;;;;;;5063899;28;20587;-67
2021/05/26 11:01:05;;;;;;;1.40;1.30;;;;;;;;;;5084094;28;20183;-68
2021/05/26 11:03:35;;;;;;;1.30;0.87;;;;;;;;;;5090041;28;20187;-67
2021/05/26 11:06:31;;;;;;;2.40;1.13;;;;;;;;;;5078149;28;20161;-69
2021/05/26 11:08:57;;;;;;;2.13;1.37;;;;;;;;;;5060374;28;20628;-66
2021/05/26 11:11:23;;;;;;;1.27;1.10;;;;;;;;;;5075440;28;20179;-68
2021/05/26 11:14:04;;;;;;;1.20;1.10;;;;;;;;;;5090263;28;20266;-68
2021/05/26 11:16:37;;;;;;;1.60;1.13;;;;;;;;;;5072038;28;20183;-68
2021/05/26 11:19:10;;;;;;;1.20;1.10;;;;;;;;;;5089560;28;20630;-68
2021/05/26 11:21:36;;;;;;;1.47;1.10;;;;;;;;;;5067351;28;20267;-70
2021/05/26 11:24:02;;;;;;;1.20;1.10;;;;;;;;;;5089175;28;20179;-69
2021/05/26 11:26:32;;;;;;;1.27;1.17;;;;;;;;;;5059905;28;20566;-68
2021/05/26 11:28:58;;;;;;;1.87;1.70;;;;;;;;;;5080870;28;20172;-67
2021/05/26 11:31:24;;;;;;;1.73;1.40;;;;;;;;;;5089007;28;20520;-69
2021/05/26 11:33:56;;;;;;;1.47;1.33;;;;;;;;;;5089389;28;20191;-67
2021/05/26 11:36:40;;;;;;;2.63;2.00;;;;;;;;;;5089671;28;20183;-68
2021/05/26 11:39:27;;;;;;;1.42;1.33;;;;;;;;;;5066787;28;20461;-67
2021/05/26 11:42:09;;;;;;;3.10;1.63;;;;;;;;;;5063509;28;20213;-67
2021/05/26 11:44:39;;;;;;;1.70;1.27;;;;;;;;;;5079872;28;20172;-68
2021/05/26 11:47:05;;;;;;;1.67;1.50;;;;;;;;;;5051960;28;20175;-68
2021/05/26 11:49:32;;;;;;;1.50;1.27;;;;;;;;;;5089852;28;20572;-67
2021/05/26 11:52:05;;;;;;;1.87;1.40;;;;;;;;;;5089102;28;20163;-70
2021/05/26 11:54:31;;;;;;;4.80;1.50;;;;;;;;;;5073145;28;20198;-68
2021/05/26 11:57:04;;;;;;;1.40;1.30;;;;;;;;;;5053153;28;20180;-67
2021/05/26 11:59:30;;;;;;;1.60;1.40;;;;;;;;;;5075013;28;20196;-68
2021/05/26 12:01:56;;;;;;;1.63;1.53;;;;;;;;;;5068039;28;20234;-67
2021/05/26 12:04:22;;;;;;;2.70;1.73;;;;;;;;;;5086692;28;20179;-68
2021/05/26 12:06:49;;;;;;;1.70;1.60;;;;;;;;;;5076591;28;20168;-68
2021/05/26 12:09:25;;;;;;;1.43;1.33;;;;;;;;;;5093416;28;20194;-68
2021/05/26 12:11:51;;;;;;;2.13;1.70;;;;;;;;;;5071274;28;20948;-68
2021/05/26 12:14:32;;;;;;;1.70;1.60;;;;;;;;;;5077796;28;20551;-67
2021/05/26 12:17:01;;;;;;;2.03;1.83;;;;;;;;;;5055757;28;20902;-68
2021/05/26 12:19:29;;;;;;;2.87;1.77;;;;;;;;;;5055535;28;20230;-67
2021/05/26 12:22:22;;;;;;;3.20;2.00;;;;;;;;;;5074850;28;20282;-68
2021/05/26 12:25:03;;;;;;;2.73;2.20;;;;;;;;;;5066596;28;20168;-66
2021/05/26 12:27:35;;;;;;;2.80;2.23;;;;;;;;;;5078933;28;20192;-68
2021/05/26 12:30:15;;;;;;;3.17;2.13;;;;;;;;;;5061580;28;20271;-66
2021/05/26 12:32:42;;;;;;;2.80;2.33;;;;;;;;;;5090161;28;20195;-66
2021/05/26 12:35:28;;;;;;;2.67;2.40;;;;;;;;;;5073209;28;20183;-66
2021/05/26 12:37:55;;;;;;;3.73;2.67;;;;;;;;;;5079637;28;20216;-67
2021/05/26 12:40:27;;;;;;;3.07;2.73;;;;;;;;;;5081785;28;20244;-67
2021/05/26 12:42:57;;;;;;;5.53;3.07;;;;;;;;;;5085745;28;20196;-67
2021/05/26 12:45:25;;;;;;;2.97;2.67;;;;;;;;;;5073980;28;20180;-67
2021/05/26 12:47:52;;;;;;;3.67;3.17;;;;;;;;;;5070746;28;20639;-68
2021/05/26 12:50:28;;;;;;;4.87;3.40;;;;;;;;;;5086009;28;20773;-67
2021/05/26 12:53:05;;;;;;;3.30;3.00;;;;;;;;;;5082708;28;20607;-66
2021/05/26 12:55:33;;;;;;;4.20;2.83;;;;;;;;;;5084478;28;20183;-69
2021/05/26 12:58:02;;;;;;;2.57;2.00;;;;;;;;;;5083336;28;20180;-66
2021/05/26 13:00:29;;;;;;;3.20;2.40;;;;;;;;;;5080282;28;20741;-67
2021/05/26 13:03:09;;;;;;;2.70;2.50;;;;;;;;;;5069747;28;20666;-67
2021/05/26 13:05:36;;;;;;;3.60;2.60;;;;;;;;;;5071598;28;20187;-69
2021/05/26 13:08:08;;;;;;;2.57;2.23;;;;;;;;;;5090111;28;20180;-68
2021/05/26 13:10:35;;;;;;;4.57;2.70;;;;;;;;;;5091505;28;20618;-68
2021/05/26 13:13:16;;;;;;;3.17;2.80;;;;;;;;;;5092180;28;20544;-68
2021/05/26 13:15:43;;;;;;;3.70;2.90;;;;;;;;;;5090395;28;20525;-68
2021/05/26 13:18:09;;;;;;;5.07;2.80;;;;;;;;;;5073004;28;20667;-70
2021/05/26 13:20:36;;;;;;;4.53;2.97;;;;;;;;;;5073747;28;20816;-69
2021/05/26 13:23:04;;;;;;;5.23;3.23;;;;;;;;;;5065367;28;20195;-70
2021/05/26 13:25:32;;;;;;;5.17;3.30;;;;;;;;;;5084180;28;20623;-69
2021/05/26 13:27:58;;;;;;;4.87;3.30;;;;;;;;;;5087242;28;20430;-67
2021/05/26 13:30:25;;;;;;;3.87;3.23;;;;;;;;;;5072207;28;20564;-67
2021/05/26 13:32:52;;;;;;;4.53;3.17;;;;;;;;;;5084807;28;21140;-70
2021/05/26 13:35:19;;;;;;;4.07;3.57;;;;;;;;;;5082343;28;20184;-67
2021/05/26 13:37:45;;;;;;;3.30;3.00;;;;;;;;;;5065254;28;20219;-65
2021/05/26 13:40:12;;;;;;;4.63;3.83;;;;;;;;;;5090691;28;20207;-63
2021/05/26 13:42:38;;;;;;;5.67;3.73;;;;;;;;;;5072829;28;20180;-65
2021/05/26 13:45:05;;;;;;;5.13;3.80;;;;;;;;;;5091001;28;20188;-66
2021/05/26 13:47:31;;;;;;;5.33;4.27;;;;;;;;;;5070222;28;20180;-67
2021/05/26 13:49:58;;;;;;;4.07;3.53;;;;;;;;;;5082933;28;20188;-67
2021/05/26 13:52:29;;;;;;;8.70;5.00;;;;;;;;;;5084178;28;20176;-65
2021/05/26 13:54:55;;;;;;;7.00;4.27;;;;;;;;;;5085000;28;20188;-65
2021/05/26 13:57:21;;;;;;;4.30;3.90;;;;;;;;;;5065775;28;20192;-68
2021/05/26 13:59:47;;;;;;;7.47;3.77;;;;;;;;;;5090894;28;20648;-66
2021/05/26 14:02:13;;;;;;;4.50;3.40;;;;;;;;;;5086565;28;20717;-65
2021/05/26 14:04:39;;;;;;;4.00;3.60;;;;;;;;;;5082684;28;20171;-65
2021/05/26 14:07:05;;;;;;;3.97;3.13;;;;;;;;;;5081952;28;20541;-67
2021/05/26 14:09:31;;;;;;;4.17;3.73;;;;;;;;;;5072233;28;20234;-67
2021/05/26 14:11:58;;;;;;;5.77;4.00;;;;;;;;;;5060623;28;20188;-66
2021/05/26 14:14:24;;;;;;;7.33;3.67;;;;;;;;;;5077038;28;20200;-66
2021/05/26 14:16:50;;;;;;;4.37;3.97;;;;;;;;;;5060233;28;20218;-66
2021/05/26 14:19:16;;;;;;;4.20;3.80;;;;;;;;;;5063577;28;20179;-66
2021/05/26 14:21:43;;;;;;;6.13;3.67;;;;;;;;;;5077366;28;20184;-65
2021/05/26 14:24:09;;;;;;;9.43;4.13;;;;;;;;;;5082678;28;20172;-65
2021/05/26 14:26:36;;;;;;;6.47;4.00;;;;;;;;;;5083978;28;20180;-67
2021/05/26 14:29:03;;;;;;;4.63;3.90;;;;;;;;;;5082798;28;20602;-65
2021/05/26 14:31:29;;;;;;;7.13;4.23;;;;;;;;;;5061841;28;20191;-64
2021/05/26 14:33:55;;;;;;;6.70;5.30;;;;;;;;;;5079348;28;20188;-65
2021/05/26 14:36:23;;;;;;;8.63;5.83;;;;;;;;;;5080242;28;20190;-65
2021/05/26 14:41:22;;;;;;;10.43;5.27;;;;;;;;;;5088728;28;20210;-65
2021/05/26 14:43:48;;;;;;;5.67;4.63;;;;;;;;;;5089553;28;20207;-64
2021/05/26 14:46:16;;;;;;;6.23;4.77;;;;;;;;;;5088743;28;20207;-64
2021/05/26 14:48:43;;;;;;;6.37;4.90;;;;;;;;;;5084114;28;20203;-66
2021/05/26 14:51:09;;;;;;;7.77;4.20;;;;;;;;;;5066487;28;20176;-63